Time;durP1;ratioP1;P1;durP2;ratioP2;P2;SDS_P1;SDS_P2;PMS_P1;PMS_P2;Temp;Humidity;BMP_temperature;BMP_pressure;BME280_temperature;BME280_humidity;BME280_pressure;Samples;Min_cycle;Max_cycle;Signal;HPM_P1;HPM_P2
2023/02/09 00:01:10;;;;;;;15.57;10.07;;;1.50;99.90;;;;;;6186639;23;20457;-73
2023/02/09 00:03:36;;;;;;;15.25;10.20;;;1.60;99.90;;;;;;6186992;23;20009;-73
2023/02/09 00:06:04;;;;;;;12.43;9.52;;;1.60;99.80;;;;;;6186794;23;20017;-72
2023/02/09 00:08:30;;;;;;;14.60;9.93;;;1.50;99.90;;;;;;6186870;23;20005;-73
2023/02/09 00:10:56;;;;;;;12.63;9.77;;;1.50;99.90;;;;;;6186988;23;20009;-73
2023/02/09 00:13:23;;;;;;;13.52;9.70;;;1.50;99.90;;;;;;6186899;23;20020;-72
2023/02/09 00:15:51;;;;;;;14.43;10.50;;;1.50;99.90;;;;;;6186851;23;20092;-73
2023/02/09 00:18:16;;;;;;;13.32;8.90;;;1.40;99.90;;;;;;6186895;23;20016;-73
2023/02/09 00:20:42;;;;;;;15.55;10.65;;;1.50;99.70;;;;;;6186674;23;20366;-73
2023/02/09 00:23:08;;;;;;;14.40;10.02;;;1.60;99.60;;;;;;6186898;23;20013;-73
2023/02/09 00:25:34;;;;;;;12.10;8.82;;;1.50;99.90;;;;;;6186844;23;20021;-73
2023/02/09 00:27:59;;;;;;;14.43;9.70;;;1.50;99.90;;;;;;6186490;23;20017;-73
2023/02/09 00:30:25;;;;;;;15.70;9.40;;;1.50;99.70;;;;;;6186403;23;20017;-72
2023/02/09 00:32:50;;;;;;;11.93;8.88;;;1.50;99.70;;;;;;6186677;23;20013;-73
2023/02/09 00:35:16;;;;;;;14.35;9.13;;;1.60;99.80;;;;;;6186502;23;20438;-73
2023/02/09 00:37:42;;;;;;;14.00;9.35;;;1.50;99.80;;;;;;6186420;23;20339;-72
2023/02/09 00:40:08;;;;;;;14.60;10.00;;;1.40;99.90;;;;;;6186802;23;20013;-73
2023/02/09 00:42:33;;;;;;;12.93;9.05;;;1.40;99.90;;;;;;6186777;23;20005;-73
2023/02/09 00:44:59;;;;;;;14.05;9.50;;;1.40;99.90;;;;;;6186537;23;20013;-73
2023/02/09 00:47:25;;;;;;;14.80;10.02;;;1.30;99.90;;;;;;6186604;23;20182;-73
2023/02/09 00:49:50;;;;;;;13.93;9.23;;;1.30;99.90;;;;;;6186670;23;20012;-73
2023/02/09 00:52:16;;;;;;;14.27;10.13;;;1.40;99.90;;;;;;6186211;23;20438;-72
2023/02/09 00:54:42;;;;;;;13.82;9.70;;;1.30;99.90;;;;;;6186608;23;20016;-73
2023/02/09 00:57:07;;;;;;;13.50;8.80;;;1.30;99.90;;;;;;6186719;23;20013;-73
2023/02/09 00:59:34;;;;;;;14.77;9.75;;;1.30;99.90;;;;;;6186606;23;20343;-72
2023/02/09 01:02:00;;;;;;;14.10;9.48;;;1.20;99.90;;;;;;6186542;23;20013;-72
2023/02/09 01:04:26;;;;;;;13.00;9.15;;;1.20;99.90;;;;;;6186623;23;20016;-72
2023/02/09 01:06:51;;;;;;;14.43;9.60;;;1.20;99.90;;;;;;6186172;23;20017;-73
2023/02/09 01:09:17;;;;;;;14.20;8.90;;;1.20;99.90;;;;;;6184769;23;20009;-73
2023/02/09 01:11:43;;;;;;;15.48;9.98;;;1.20;99.90;;;;;;6186722;23;20013;-73
2023/02/09 01:14:09;;;;;;;12.65;8.30;;;1.20;99.90;;;;;;6186206;23;20331;-73
2023/02/09 01:16:34;;;;;;;13.60;9.27;;;1.20;99.90;;;;;;6186156;23;20017;-73
2023/02/09 01:19:02;;;;;;;16.65;9.13;;;1.20;99.90;;;;;;6186167;23;20013;-73
2023/02/09 01:21:29;;;;;;;14.63;8.52;;;1.20;99.80;;;;;;6186352;23;20036;-73
2023/02/09 01:23:55;;;;;;;13.27;8.98;;;1.20;99.80;;;;;;6186442;23;20390;-73
2023/02/09 01:26:21;;;;;;;14.35;9.23;;;1.10;99.90;;;;;;6186425;23;20013;-73
2023/02/09 01:28:51;;;;;;;13.93;9.07;;;1.10;99.90;;;;;;6185931;23;20021;-72
2023/02/09 01:31:26;;;;;;;13.38;9.00;;;1.10;99.90;;;;;;6185963;23;20063;-72
2023/02/09 01:33:54;;;;;;;13.35;8.43;;;1.10;99.90;;;;;;6186290;23;20021;-72
2023/02/09 01:36:20;;;;;;;13.55;8.50;;;1.10;99.90;;;;;;6186414;23;20016;-72
2023/02/09 01:38:46;;;;;;;13.77;8.60;;;1.10;99.90;;;;;;6186408;23;20013;-73
2023/02/09 01:41:12;;;;;;;14.63;9.07;;;1.10;99.90;;;;;;6186536;23;20097;-72
2023/02/09 01:44:01;;;;;;;14.63;8.98;;;1.10;99.90;;;;;;6186486;23;20442;-72
2023/02/09 01:46:32;;;;;;;15.43;8.93;;;1.10;99.90;;;;;;6188681;23;20097;-73
2023/02/09 01:49:16;;;;;;;14.48;9.18;;;1.10;99.90;;;;;;6188535;23;20052;-73
2023/02/09 01:51:50;;;;;;;14.15;8.90;;;1.10;99.90;;;;;;6187980;23;20019;-72
2023/02/09 01:54:27;;;;;;;14.65;9.00;;;1.20;99.90;;;;;;6186675;23;20009;-72
2023/02/09 01:57:08;;;;;;;13.68;9.15;;;1.10;99.90;;;;;;6188704;23;20024;-72
2023/02/09 01:59:36;;;;;;;13.98;8.43;;;1.20;99.90;;;;;;6186650;23;20013;-73
2023/02/09 02:02:04;;;;;;;13.73;8.48;;;1.10;99.90;;;;;;6186986;23;20070;-73
2023/02/09 02:04:30;;;;;;;14.77;8.77;;;1.00;99.90;;;;;;6188479;23;20071;-73
2023/02/09 02:07:05;;;;;;;15.60;8.68;;;1.00;99.90;;;;;;6186351;23;20052;-73
2023/02/09 02:09:30;;;;;;;13.20;8.52;;;1.00;99.90;;;;;;6188107;23;20013;-73
2023/02/09 02:11:56;;;;;;;14.98;8.80;;;1.10;99.90;;;;;;6186311;23;20017;-72
2023/02/09 02:14:31;;;;;;;13.32;8.63;;;1.00;99.90;;;;;;6188040;23;20017;-73
2023/02/09 02:17:34;;;;;;;11.68;8.32;;;1.10;99.90;;;;;;6187719;23;20048;-72
2023/02/09 02:20:19;;;;;;;13.10;8.70;;;1.10;99.90;;;;;;6188009;23;20017;-73
2023/02/09 02:23:02;;;;;;;13.30;9.05;;;1.00;99.90;;;;;;6188023;23;20013;-72
2023/02/09 02:25:54;;;;;;;15.38;8.85;;;0.90;99.90;;;;;;6188341;23;20044;-72
2023/02/09 02:28:39;;;;;;;13.27;8.85;;;0.90;99.90;;;;;;6188466;23;20016;-73
2023/02/09 02:31:07;;;;;;;15.30;8.45;;;0.90;99.90;;;;;;6188008;23;20016;-72
2023/02/09 02:34:08;;;;;;;14.60;8.43;;;0.90;99.90;;;;;;6187956;23;20381;-73
2023/02/09 02:36:51;;;;;;;15.00;8.57;;;0.80;99.90;;;;;;6154887;23;20342;-73
2023/02/09 02:39:37;;;;;;;16.10;9.00;;;0.80;99.90;;;;;;6187909;23;20012;-73
2023/02/09 02:45:17;;;;;;;13.27;8.85;;;0.70;99.90;;;;;;6187785;23;20342;-72
2023/02/09 02:47:48;;;;;;;14.15;9.02;;;0.80;99.90;;;;;;6186469;23;20334;-73
2023/02/09 02:50:22;;;;;;;15.25;9.18;;;0.70;99.90;;;;;;6187332;23;20013;-72
2023/02/09 02:52:50;;;;;;;14.20;8.88;;;0.70;99.90;;;;;;6186400;23;20009;-72
2023/02/09 02:55:19;;;;;;;15.07;9.02;;;0.70;99.90;;;;;;6187662;23;20012;-73
2023/02/09 02:57:49;;;;;;;17.88;10.32;;;0.70;99.90;;;;;;6187366;23;20032;-72
2023/02/09 03:00:22;;;;;;;12.68;8.55;;;0.70;99.90;;;;;;6187759;23;20013;-73
2023/02/09 03:02:52;;;;;;;14.95;9.93;;;0.70;99.90;;;;;;6187604;23;20092;-72
2023/02/09 03:05:21;;;;;;;14.75;9.77;;;0.70;99.90;;;;;;6187455;23;20095;-72
2023/02/09 03:07:47;;;;;;;15.05;9.38;;;0.70;99.90;;;;;;6185733;23;20088;-72
2023/02/09 03:10:42;;;;;;;14.18;8.93;;;0.60;99.90;;;;;;6187251;23;20013;-72
2023/02/09 03:13:20;;;;;;;13.95;8.63;;;0.60;99.90;;;;;;6173505;23;20497;-72
2023/02/09 03:15:50;;;;;;;15.27;8.77;;;0.70;99.90;;;;;;6186142;23;20024;-73
2023/02/09 03:18:33;;;;;;;13.57;8.73;;;0.60;99.90;;;;;;6187564;23;20013;-73
2023/02/09 03:21:14;;;;;;;14.57;9.30;;;0.60;99.90;;;;;;6187037;23;20017;-72
2023/02/09 03:23:43;;;;;;;14.73;9.43;;;0.50;99.90;;;;;;6187211;23;20016;-72
2023/02/09 03:26:17;;;;;;;14.20;8.70;;;0.60;99.90;;;;;;6187482;23;20076;-72
2023/02/09 03:28:47;;;;;;;16.48;9.55;;;0.60;99.90;;;;;;6185416;23;20342;-73
2023/02/09 03:31:13;;;;;;;15.70;10.32;;;0.60;99.90;;;;;;6185570;23;20013;-73
2023/02/09 03:33:40;;;;;;;14.80;9.45;;;0.60;99.90;;;;;;6187367;23;20009;-73
2023/02/09 03:36:12;;;;;;;15.65;9.65;;;0.60;99.90;;;;;;6185508;23;20099;-72
2023/02/09 03:38:38;;;;;;;13.27;9.13;;;0.50;99.90;;;;;;6187232;23;20056;-73
2023/02/09 03:41:04;;;;;;;14.00;9.05;;;0.60;99.90;;;;;;6160672;23;20013;-72
2023/02/09 03:46:13;;;;;;;14.90;9.27;;;0.50;99.90;;;;;;6187147;23;20021;-73
2023/02/09 03:48:39;;;;;;;14.55;9.60;;;0.50;99.90;;;;;;6185348;23;20009;-72
2023/02/09 03:51:08;;;;;;;15.05;9.75;;;0.50;99.90;;;;;;6185243;23;20048;-73
2023/02/09 03:53:35;;;;;;;13.68;8.57;;;0.50;99.90;;;;;;6187190;23;20382;-73
2023/02/09 03:56:08;;;;;;;15.35;8.35;;;0.60;99.90;;;;;;6187169;23;20013;-72
2023/02/09 03:58:34;;;;;;;15.15;9.27;;;0.60;99.90;;;;;;6187199;23;20024;-72
2023/02/09 04:01:06;;;;;;;15.90;8.95;;;0.60;99.90;;;;;;6187161;23;20339;-73
2023/02/09 04:03:33;;;;;;;14.77;8.40;;;0.60;99.90;;;;;;6185300;23;20025;-72
2023/02/09 04:05:59;;;;;;;15.60;9.45;;;0.60;99.90;;;;;;6187361;23;20039;-73
2023/02/09 04:08:26;;;;;;;14.48;8.73;;;0.50;99.90;;;;;;6186496;23;20386;-73
2023/02/09 04:10:51;;;;;;;12.80;8.65;;;0.50;99.90;;;;;;6185285;23;20028;-73
2023/02/09 04:13:17;;;;;;;13.32;9.00;;;0.60;99.90;;;;;;6186879;23;20346;-72
2023/02/09 04:15:43;;;;;;;13.02;8.93;;;0.50;99.90;;;;;;6186639;23;20013;-72
2023/02/09 04:18:09;;;;;;;14.43;9.13;;;0.50;99.90;;;;;;6186888;23;20045;-72
2023/02/09 04:20:34;;;;;;;17.02;9.90;;;0.50;99.90;;;;;;6186642;23;20009;-72
2023/02/09 04:23:00;;;;;;;15.23;8.68;;;0.50;99.90;;;;;;6186451;23;20465;-72
2023/02/09 04:25:25;;;;;;;13.90;9.27;;;0.40;99.90;;;;;;6186765;23;20132;-73
2023/02/09 04:27:51;;;;;;;16.00;9.02;;;0.40;99.90;;;;;;6186590;23;20116;-72
2023/02/09 04:30:17;;;;;;;15.68;9.32;;;0.50;99.90;;;;;;6185944;23;20013;-72
2023/02/09 04:32:42;;;;;;;16.75;9.15;;;0.40;99.90;;;;;;6186690;23;20375;-72
2023/02/09 04:35:08;;;;;;;13.30;9.10;;;0.40;99.90;;;;;;6186475;23;20464;-73
2023/02/09 04:37:34;;;;;;;16.50;9.52;;;0.40;99.90;;;;;;6186753;23;20338;-73
2023/02/09 04:39:59;;;;;;;13.57;9.68;;;0.30;99.90;;;;;;6186754;23;20013;-73
2023/02/09 04:42:25;;;;;;;14.75;9.23;;;0.30;99.90;;;;;;6184924;23;20087;-73
2023/02/09 04:44:50;;;;;;;15.63;9.32;;;0.20;99.90;;;;;;6187568;23;20012;-73
2023/02/09 04:47:16;;;;;;;15.93;10.23;;;0.20;99.90;;;;;;6184886;23;20040;-73
2023/02/09 04:49:43;;;;;;;15.82;9.88;;;0.20;99.90;;;;;;6184904;23;20067;-72
2023/02/09 04:52:09;;;;;;;14.85;9.82;;;0.20;99.90;;;;;;6186518;23;20009;-73
2023/02/09 04:54:34;;;;;;;17.40;9.90;;;0.20;99.90;;;;;;6186612;23;20316;-73
2023/02/09 04:59:45;;;;;;;14.93;9.45;;;0.20;99.90;;;;;;6186574;23;20021;-72
2023/02/09 05:02:10;;;;;;;18.50;9.93;;;0.10;99.90;;;;;;6186526;23;20067;-73
2023/02/09 05:04:36;;;;;;;15.80;9.90;;;0.10;99.90;;;;;;6186531;23;20009;-73
2023/02/09 05:07:01;;;;;;;15.38;9.38;;;0.00;99.90;;;;;;6184574;23;20031;-72
2023/02/09 05:09:27;;;;;;;14.10;9.50;;;0.00;99.90;;;;;;6186209;23;20076;-72
2023/02/09 05:11:53;;;;;;;15.55;9.65;;;0.00;99.90;;;;;;6186762;23;20016;-73
2023/02/09 05:14:18;;;;;;;16.13;9.95;;;0.00;99.90;;;;;;6186237;23;20330;-73
2023/02/09 05:16:44;;;;;;;14.63;9.02;;;0.00;99.90;;;;;;6186556;23;20013;-73
2023/02/09 05:19:09;;;;;;;16.10;10.88;;;0.00;99.90;;;;;;6186273;23;20013;-73
2023/02/09 05:21:35;;;;;;;15.02;9.45;;;0.00;99.90;;;;;;6186478;23;20338;-72
2023/02/09 05:24:01;;;;;;;15.18;8.80;;;-0.10;99.90;;;;;;6186284;23;20013;-73
2023/02/09 05:26:26;;;;;;;16.08;9.30;;;-0.10;99.90;;;;;;6187011;23;20020;-73
2023/02/09 05:28:52;;;;;;;15.13;9.57;;;-0.10;99.90;;;;;;6186888;23;20334;-72
2023/02/09 05:31:18;;;;;;;16.33;9.82;;;-0.10;99.90;;;;;;6186790;23;20342;-72
2023/02/09 05:33:43;;;;;;;16.92;10.40;;;-0.10;99.90;;;;;;6184606;23;20335;-72
2023/02/09 05:36:11;;;;;;;14.43;9.95;;;-0.10;99.90;;;;;;6186084;23;20009;-72
2023/02/09 05:38:37;;;;;;;14.77;10.15;;;0.00;99.90;;;;;;6186437;23;20033;-75
2023/02/09 05:41:08;;;;;;;15.55;9.23;;;-0.10;99.90;;;;;;6184764;23;20020;-74
2023/02/09 05:43:35;;;;;;;14.35;9.85;;;-0.10;99.90;;;;;;6186394;23;20076;-72
2023/02/09 05:46:01;;;;;;;16.65;10.48;;;-0.10;99.90;;;;;;6185870;23;20546;-73
2023/02/09 05:48:27;;;;;;;15.35;8.80;;;-0.10;99.90;;;;;;6184566;23;20040;-75
2023/02/09 05:50:52;;;;;;;15.63;9.77;;;-0.10;99.90;;;;;;6184289;23;20016;-77
2023/02/09 05:53:18;;;;;;;16.08;9.85;;;-0.10;99.90;;;;;;6184502;23;20009;-76
2023/02/09 05:55:46;;;;;;;15.35;9.45;;;-0.10;99.90;;;;;;6184449;23;20095;-76
2023/02/09 05:58:11;;;;;;;14.52;9.80;;;-0.10;99.90;;;;;;6159713;23;20074;-77
2023/02/09 06:00:37;;;;;;;15.48;9.00;;;-0.10;99.90;;;;;;6159679;23;20084;-78
2023/02/09 06:03:03;;;;;;;16.55;10.45;;;-0.10;99.90;;;;;;6186255;23;20076;-77
2023/02/09 06:05:28;;;;;;;18.60;10.05;;;-0.20;99.90;;;;;;6185859;23;20446;-77
2023/02/09 06:07:54;;;;;;;16.75;10.35;;;-0.20;99.90;;;;;;6186241;23;20009;-75
2023/02/09 06:10:20;;;;;;;14.88;10.30;;;-0.20;99.90;;;;;;6184433;23;20342;-75
2023/02/09 06:12:46;;;;;;;13.45;9.23;;;-0.20;99.90;;;;;;6186472;23;20013;-74
2023/02/09 06:15:15;;;;;;;16.42;11.10;;;-0.20;99.90;;;;;;6186294;23;20013;-75
2023/02/09 06:17:40;;;;;;;14.65;9.82;;;-0.30;99.90;;;;;;6185974;23;20013;-84
2023/02/09 06:20:06;;;;;;;16.15;10.50;;;-0.30;99.90;;;;;;6184289;23;20009;-71
2023/02/09 06:22:32;;;;;;;17.38;10.55;;;-0.30;99.90;;;;;;6184201;23;20012;-72
2023/02/09 06:24:57;;;;;;;17.02;9.98;;;-0.30;99.90;;;;;;6186114;23;20009;-71
2023/02/09 06:27:23;;;;;;;17.20;10.55;;;-0.40;99.90;;;;;;6184297;23;20013;-71
2023/02/09 06:29:49;;;;;;;16.17;9.90;;;-0.30;99.90;;;;;;6184324;23;20055;-71
2023/02/09 06:32:14;;;;;;;15.23;9.57;;;-0.40;99.90;;;;;;6184965;23;20017;-71
2023/02/09 06:34:40;;;;;;;16.48;10.10;;;-0.30;99.90;;;;;;6186578;23;20013;-71
2023/02/09 06:37:05;;;;;;;16.23;9.98;;;-0.30;99.90;;;;;;6186112;23;20136;-71
2023/02/09 06:39:31;;;;;;;14.88;9.98;;;-0.30;99.90;;;;;;6185992;23;20353;-70
2023/02/09 06:41:57;;;;;;;15.30;9.63;;;-0.30;99.90;;;;;;6186106;23;20013;-71
2023/02/09 06:44:22;;;;;;;16.05;9.82;;;-0.30;99.90;;;;;;6187530;23;20017;-71
2023/02/09 06:46:48;;;;;;;14.57;9.70;;;-0.30;99.90;;;;;;6161129;23;20043;-71
2023/02/09 06:49:14;;;;;;;16.70;10.50;;;-0.30;99.90;;;;;;6185961;23;20049;-71
2023/02/09 06:51:39;;;;;;;16.27;10.00;;;-0.30;99.90;;;;;;6185878;23;20017;-71
2023/02/09 06:54:05;;;;;;;14.32;9.65;;;-0.40;99.90;;;;;;6185974;23;20311;-71
2023/02/09 06:56:31;;;;;;;17.20;9.77;;;-0.40;99.90;;;;;;6187490;23;20020;-71
2023/02/09 06:58:56;;;;;;;13.90;9.38;;;-0.40;99.90;;;;;;6187804;23;20016;-71
2023/02/09 07:01:22;;;;;;;16.63;9.57;;;-0.40;99.90;;;;;;6187681;23;20021;-71
2023/02/09 07:03:47;;;;;;;13.52;8.93;;;-0.40;99.90;;;;;;6185789;23;20078;-71
2023/02/09 07:06:18;;;;;;;17.23;9.82;;;-0.40;99.90;;;;;;6185688;23;20020;-72
2023/02/09 07:08:44;;;;;;;;;;;-0.40;99.90;;;;;;6187881;23;20056;-71
2023/02/09 07:11:12;;;;;;;15.52;10.27;;;-0.40;99.90;;;;;;6185721;23;19916;-72
2023/02/09 07:13:38;;;;;;;13.68;10.18;;;-0.50;99.90;;;;;;6187275;23;20060;-73
2023/02/09 07:16:06;;;;;;;15.32;9.73;;;-0.50;99.90;;;;;;6185644;23;20346;-73
2023/02/09 07:18:32;;;;;;;15.77;10.25;;;-0.40;99.90;;;;;;6185742;23;20398;-73
2023/02/09 07:21:04;;;;;;;14.55;10.15;;;-0.40;99.90;;;;;;6187025;23;20017;-73
2023/02/09 07:23:29;;;;;;;15.82;9.88;;;-0.50;99.90;;;;;;6185645;23;20021;-73
2023/02/09 07:25:55;;;;;;;14.13;9.48;;;-0.40;99.90;;;;;;6185600;23;20017;-73
2023/02/09 07:28:21;;;;;;;18.15;10.30;;;-0.30;99.90;;;;;;6185496;23;20024;-73
2023/02/09 07:30:51;;;;;;;14.23;9.50;;;-0.30;99.90;;;;;;6187395;23;20012;-73
2023/02/09 07:33:18;;;;;;;14.18;9.40;;;-0.20;99.90;;;;;;6185491;23;20443;-73
2023/02/09 07:35:45;;;;;;;15.60;8.93;;;-0.20;99.90;;;;;;6185550;23;20443;-73
2023/02/09 07:38:10;;;;;;;13.65;8.90;;;-0.10;99.90;;;;;;6185414;23;20096;-73
2023/02/09 07:40:37;;;;;;;11.95;8.00;;;0.00;99.90;;;;;;6185806;23;20024;-73
2023/02/09 07:43:06;;;;;;;14.07;9.50;;;0.00;99.90;;;;;;6160620;23;20088;-73
2023/02/09 07:45:32;;;;;;;16.23;9.80;;;0.00;99.90;;;;;;6185792;23;20013;-73
2023/02/09 07:47:58;;;;;;;14.60;9.13;;;0.10;99.90;;;;;;6185406;23;20009;-73
2023/02/09 07:50:24;;;;;;;13.82;9.05;;;0.10;99.90;;;;;;6185266;23;20390;-73
2023/02/09 07:52:52;;;;;;;13.98;9.23;;;0.10;99.90;;;;;;6160502;23;20009;-73
2023/02/09 07:55:18;;;;;;;15.73;9.70;;;0.20;99.90;;;;;;6185295;23;20017;-74
2023/02/09 07:57:44;;;;;;;13.57;9.77;;;0.20;99.90;;;;;;6185372;23;20020;-74
2023/02/09 08:00:10;;;;;;;13.70;9.50;;;0.20;99.90;;;;;;6185198;23;20117;-73
2023/02/09 08:02:37;;;;;;;16.35;9.70;;;0.30;99.90;;;;;;6185092;23;20040;-73
2023/02/09 08:05:07;;;;;;;14.77;10.55;;;0.30;99.90;;;;;;6185073;23;20066;-74
2023/02/09 08:07:33;;;;;;;16.17;9.60;;;0.30;99.90;;;;;;6160425;23;20009;-73
2023/02/09 08:09:58;;;;;;;19.95;10.00;;;0.40;99.90;;;;;;6185196;23;20067;-73
2023/02/09 08:15:19;;;;;;;13.32;9.40;;;0.50;99.90;;;;;;6185213;23;20025;-73
2023/02/09 08:17:46;;;;;;;14.93;9.23;;;0.50;99.90;;;;;;6185144;23;20020;-73
2023/02/09 08:20:19;;;;;;;14.35;10.23;;;0.50;99.90;;;;;;6185032;23;20028;-73
2023/02/09 08:22:49;;;;;;;14.13;9.15;;;0.50;99.90;;;;;;6160266;23;20021;-73
2023/02/09 08:25:19;;;;;;;15.23;10.10;;;0.50;99.90;;;;;;6184994;23;20027;-73
2023/02/09 08:27:45;;;;;;;14.02;8.75;;;0.50;99.90;;;;;;6184955;23;20092;-73
2023/02/09 08:30:14;;;;;;;14.82;9.63;;;0.60;99.90;;;;;;6186944;23;20020;-72
2023/02/09 08:32:39;;;;;;;15.88;9.63;;;0.60;99.90;;;;;;6185031;23;20067;-73
2023/02/09 08:35:06;;;;;;;15.77;9.45;;;0.60;99.90;;;;;;6184988;23;20442;-73
2023/02/09 08:37:31;;;;;;;17.17;9.65;;;0.70;99.90;;;;;;6185120;23;20338;-72
2023/02/09 08:39:57;;;;;;;13.90;9.52;;;0.70;99.90;;;;;;6185099;23;20090;-73
2023/02/09 08:42:23;;;;;;;15.23;10.65;;;0.80;99.90;;;;;;6185054;23;20382;-72
2023/02/09 08:44:48;;;;;;;14.80;10.02;;;0.80;99.90;;;;;;6185041;23;20013;-73
2023/02/09 08:47:14;;;;;;;16.75;10.20;;;0.90;99.90;;;;;;6184883;23;20401;-73
2023/02/09 08:49:40;;;;;;;15.18;9.93;;;0.90;99.90;;;;;;6185067;23;20045;-73
2023/02/09 08:52:07;;;;;;;14.75;9.57;;;0.90;99.90;;;;;;6186730;23;20326;-73
2023/02/09 08:54:33;;;;;;;16.23;10.02;;;1.00;99.90;;;;;;6159819;23;20009;-72
2023/02/09 08:56:59;;;;;;;18.17;9.93;;;1.00;99.90;;;;;;6185018;23;20019;-73
2023/02/09 08:59:25;;;;;;;13.88;9.20;;;1.10;99.90;;;;;;6184782;23;20013;-73
2023/02/09 09:01:52;;;;;;;15.10;10.05;;;1.00;99.90;;;;;;6184781;23;20068;-73
2023/02/09 09:04:20;;;;;;;15.75;9.75;;;1.10;99.90;;;;;;6159899;23;20453;-72
2023/02/09 09:06:46;;;;;;;15.82;11.05;;;1.10;99.90;;;;;;6186438;23;20017;-72
2023/02/09 09:09:12;;;;;;;15.18;10.30;;;1.10;99.90;;;;;;6186578;23;20024;-73
2023/02/09 09:11:38;;;;;;;15.38;10.45;;;1.10;99.90;;;;;;6184851;23;20338;-72
2023/02/09 09:14:04;;;;;;;18.25;10.65;;;1.10;99.90;;;;;;6186069;23;20013;-73
2023/02/09 09:16:29;;;;;;;14.05;9.85;;;1.10;99.90;;;;;;6184639;23;20013;-73
2023/02/09 09:18:55;;;;;;;15.10;10.45;;;1.20;99.90;;;;;;6184650;23;20017;-73
2023/02/09 09:21:20;;;;;;;16.08;10.48;;;1.20;99.90;;;;;;6184370;23;20446;-73
2023/02/09 09:23:46;;;;;;;16.10;10.35;;;1.30;99.90;;;;;;6186419;23;20067;-73
2023/02/09 09:26:13;;;;;;;16.45;11.15;;;1.30;99.90;;;;;;6186367;23;20339;-73
2023/02/09 09:28:39;;;;;;;15.93;9.95;;;1.30;99.90;;;;;;6185965;23;20466;-73
2023/02/09 09:31:13;;;;;;;15.38;10.25;;;1.40;99.90;;;;;;6184609;23;20009;-73
2023/02/09 09:33:40;;;;;;;18.20;10.55;;;1.40;99.90;;;;;;6184535;23;20027;-73
2023/02/09 09:36:08;;;;;;;16.58;11.02;;;1.50;99.90;;;;;;6184546;23;20013;-73
2023/02/09 09:38:35;;;;;;;16.75;11.13;;;1.50;99.90;;;;;;6184480;23;20013;-73
2023/02/09 09:41:15;;;;;;;15.80;11.05;;;1.50;99.90;;;;;;6184524;23;20465;-73
2023/02/09 09:43:40;;;;;;;19.38;11.80;;;1.60;99.90;;;;;;6184741;23;20013;-73
2023/02/09 09:46:10;;;;;;;15.63;11.02;;;1.60;99.90;;;;;;6186295;23;20017;-73
2023/02/09 09:48:50;;;;;;;17.00;11.23;;;1.60;99.90;;;;;;6184556;23;20434;-73
2023/02/09 09:51:40;;;;;;;19.88;12.00;;;1.70;99.90;;;;;;6185840;23;20453;-73
2023/02/09 09:54:17;;;;;;;;;;;1.70;99.90;;;;;;6169780;23;20013;-73
2023/02/09 09:56:43;;;;;;;16.90;11.88;;;1.80;99.90;;;;;;6184379;23;19952;-73
2023/02/09 09:59:25;;;;;;;16.98;11.20;;;1.90;99.90;;;;;;6184348;23;20461;-73
2023/02/09 10:01:52;;;;;;;15.23;10.63;;;1.90;99.90;;;;;;6184498;23;20084;-73
2023/02/09 10:04:19;;;;;;;20.35;12.45;;;2.00;99.90;;;;;;6186214;23;20017;-73
2023/02/09 10:06:50;;;;;;;16.45;11.23;;;2.00;99.90;;;;;;6187274;23;20044;-73
2023/02/09 10:09:51;;;;;;;18.40;10.88;;;2.10;99.90;;;;;;6188312;23;20044;-73
2023/02/09 10:12:36;;;;;;;16.73;10.98;;;2.10;99.90;;;;;;6068393;23;20019;-73
2023/02/09 10:15:27;;;;;;;17.50;11.15;;;2.30;99.90;;;;;;6068390;23;20097;-73
2023/02/09 10:17:53;;;;;;;;;;;2.30;99.90;;;;;;6044500;23;20018;-73
2023/02/09 10:20:40;;;;;;;17.52;10.98;;;2.40;99.90;;;;;;6067942;23;20321;-73
2023/02/09 10:23:14;;;;;;;20.65;11.68;;;2.40;99.90;;;;;;6043931;23;20340;-73
2023/02/09 10:25:45;;;;;;;17.27;11.45;;;2.50;99.90;;;;;;6068052;23;20054;-73
2023/02/09 10:28:24;;;;;;;16.33;11.48;;;2.50;99.90;;;;;;6043826;23;20030;-73
2023/02/09 10:30:51;;;;;;;17.40;11.30;;;2.50;99.90;;;;;;6067916;23;20046;-73
2023/02/09 10:33:18;;;;;;;16.27;11.32;;;2.60;99.90;;;;;;6067974;23;20011;-73
2023/02/09 10:35:50;;;;;;;19.17;11.82;;;2.70;99.90;;;;;;6067850;23;20424;-73
2023/02/09 10:38:19;;;;;;;18.27;11.93;;;2.70;99.90;;;;;;6067965;23;20116;-73
2023/02/09 10:40:46;;;;;;;18.77;11.15;;;2.70;99.90;;;;;;6043955;23;20055;-73
2023/02/09 10:43:24;;;;;;;15.35;11.32;;;2.70;99.90;;;;;;6067917;23;20590;-73
2023/02/09 10:45:54;;;;;;;17.42;11.48;;;2.70;99.90;;;;;;6087872;23;20520;-73
2023/02/09 10:48:22;;;;;;;16.80;13.02;;;2.80;99.90;;;;;;6186032;23;20024;-73
2023/02/09 10:50:49;;;;;;;16.75;11.85;;;2.80;99.90;;;;;;6187701;23;20012;-73
2023/02/09 10:53:23;;;;;;;18.58;12.30;;;2.90;99.90;;;;;;6185998;23;20013;-73
2023/02/09 10:55:50;;;;;;;17.58;12.65;;;2.90;99.90;;;;;;6187750;23;20013;-73
2023/02/09 10:58:22;;;;;;;21.25;12.00;;;2.90;99.90;;;;;;6187831;23;20013;-73
2023/02/09 11:00:57;;;;;;;17.83;12.15;;;2.80;99.90;;;;;;6185899;23;20087;-73
2023/02/09 11:03:26;;;;;;;20.05;13.38;;;2.80;99.90;;;;;;6185868;23;20013;-73
2023/02/09 11:06:02;;;;;;;19.27;13.85;;;2.80;99.90;;;;;;6187249;23;20443;-73
2023/02/09 11:08:38;;;;;;;20.05;13.43;;;2.80;99.90;;;;;;6186254;23;20013;-73
2023/02/09 11:11:14;;;;;;;17.88;12.13;;;2.90;99.90;;;;;;6187578;23;20326;-73
2023/02/09 11:13:41;;;;;;;18.88;12.65;;;2.90;99.90;;;;;;6185955;23;20024;-73
2023/02/09 11:16:33;;;;;;;19.13;12.63;;;2.90;99.90;;;;;;6185721;23;20450;-73
2023/02/09 11:19:16;;;;;;;20.42;13.05;;;3.00;99.90;;;;;;6186894;23;20438;-74
2023/02/09 11:22:13;;;;;;;18.45;12.07;;;3.00;99.90;;;;;;6187389;23;20024;-74
2023/02/09 11:25:01;;;;;;;20.90;12.85;;;3.10;99.90;;;;;;6187567;23;20320;-73
2023/02/09 11:28:03;;;;;;;20.50;13.38;;;3.20;99.90;;;;;;6187313;23;20013;-73
2023/02/09 11:30:58;;;;;;;18.70;12.50;;;3.20;99.90;;;;;;6187476;23;20337;-73
2023/02/09 11:33:24;;;;;;;20.58;13.85;;;3.20;99.90;;;;;;6185881;23;20017;-74
2023/02/09 11:36:17;;;;;;;18.77;12.98;;;3.40;99.90;;;;;;6187411;23;20013;-74
2023/02/09 11:39:01;;;;;;;18.20;12.55;;;3.40;99.90;;;;;;6187017;23;20024;-74
2023/02/09 11:44:33;;;;;;;18.63;13.55;;;3.70;99.90;;;;;;6185573;23;20021;-73
2023/02/09 11:47:06;;;;;;;20.13;13.02;;;3.70;99.90;;;;;;6160871;23;20087;-75
2023/02/09 11:49:48;;;;;;;19.95;13.50;;;3.70;99.90;;;;;;6185369;23;20390;-74
2023/02/09 11:52:22;;;;;;;20.50;13.13;;;3.70;99.90;;;;;;6160520;23;20013;-73
2023/02/09 11:54:53;;;;;;;19.85;12.77;;;3.70;99.90;;;;;;6187222;23;20005;-74
2023/02/09 11:57:34;;;;;;;17.42;12.82;;;3.70;99.90;;;;;;6187743;23;20444;-73
2023/02/09 12:00:04;;;;;;;17.92;13.48;;;3.70;99.90;;;;;;6160577;23;20017;-78
2023/02/09 12:02:58;;;;;;;22.65;14.25;;;3.80;99.90;;;;;;6185180;23;20024;-72
2023/02/09 12:05:24;;;;;;;21.63;14.13;;;3.80;99.90;;;;;;6185209;23;20013;-72
2023/02/09 12:08:12;;;;;;;17.98;13.32;;;3.90;99.90;;;;;;6160501;23;20019;-72
2023/02/09 12:10:46;;;;;;;19.20;13.10;;;3.90;99.90;;;;;;6185457;23;20009;-72
2023/02/09 12:13:25;;;;;;;20.40;14.85;;;4.00;99.90;;;;;;6187713;23;20043;-72
2023/02/09 12:16:10;;;;;;;22.40;15.00;;;4.10;99.90;;;;;;6185960;23;20080;-72
2023/02/09 12:18:39;;;;;;;20.48;14.32;;;4.00;99.90;;;;;;6185382;23;20099;-77
2023/02/09 12:21:06;;;;;;;23.10;14.40;;;4.10;99.90;;;;;;6185302;23;20020;-74
2023/02/09 12:23:40;;;;;;;19.42;14.20;;;4.10;99.90;;;;;;6185340;23;20462;-73
2023/02/09 12:26:14;;;;;;;23.85;14.60;;;4.20;99.90;;;;;;6186841;23;20012;-72
2023/02/09 12:29:21;;;;;;;21.10;15.10;;;4.20;99.90;;;;;;6186853;23;20075;-74
2023/02/09 12:32:02;;;;;;;24.20;15.00;;;4.30;99.90;;;;;;6170902;23;20017;-73
2023/02/09 12:34:34;;;;;;;21.67;15.50;;;4.40;99.90;;;;;;6185189;23;20024;-72
2023/02/09 12:37:18;;;;;;;19.35;14.07;;;4.50;99.90;;;;;;6185311;23;20017;-72
2023/02/09 12:40:02;;;;;;;22.48;15.30;;;4.60;99.90;;;;;;6187047;23;20017;-73
2023/02/09 12:42:37;;;;;;;20.60;15.13;;;4.60;99.90;;;;;;6185195;23;20070;-72
2023/02/09 12:45:36;;;;;;;22.88;14.88;;;4.60;99.90;;;;;;6160294;23;20025;-72
2023/02/09 12:48:07;;;;;;;22.35;14.77;;;4.70;99.90;;;;;;6186810;23;20049;-73
2023/02/09 12:50:42;;;;;;;22.80;15.57;;;4.50;99.90;;;;;;6184799;23;20017;-72
2023/02/09 12:53:23;;;;;;;19.88;14.73;;;4.50;99.90;;;;;;6186759;23;20013;-72
2023/02/09 12:56:25;;;;;;;25.15;16.55;;;4.40;99.90;;;;;;6184918;23;20017;-72
2023/02/09 12:58:51;;;;;;;24.27;16.10;;;4.40;99.90;;;;;;6185046;23;20025;-72
2023/02/09 13:01:17;;;;;;;22.90;15.27;;;4.40;99.90;;;;;;6185353;23;20342;-72
2023/02/09 13:04:03;;;;;;;23.10;16.63;;;4.50;99.90;;;;;;6184836;23;20472;-72
2023/02/09 13:06:39;;;;;;;24.50;16.30;;;4.50;99.90;;;;;;6186539;23;20088;-73
2023/02/09 13:09:11;;;;;;;22.73;15.98;;;4.50;99.90;;;;;;6160185;23;20423;-73
2023/02/09 13:11:50;;;;;;;23.25;15.25;;;4.60;99.90;;;;;;6184777;23;20023;-73